sensor_id;sensor_type;location;lat;lon;timestamp;P1;durP1;ratioP1;P2;durP2;ratioP2
22468;SDS011;11401;50.792;4.352;2023-11-18T02:34:05;6.80;;;4.72;;
22468;SDS011;11401;50.792;4.352;2023-11-18T02:36:46;7.35;;;4.70;;
22468;SDS011;11401;50.792;4.352;2023-11-18T02:39:22;8.82;;;4.57;;
22468;SDS011;11401;50.792;4.352;2023-11-18T02:41:55;8.38;;;4.78;;
22468;SDS011;11401;50.792;4.352;2023-11-18T02:44:24;8.43;;;4.53;;
22468;SDS011;11401;50.792;4.352;2023-11-18T02:46:52;5.72;;;4.00;;
22468;SDS011;11401;50.792;4.352;2023-11-18T02:49:19;7.40;;;4.45;;
22468;SDS011;11401;50.792;4.352;2023-11-18T02:51:46;8.23;;;4.22;;
22468;SDS011;11401;50.792;4.352;2023-11-18T02:54:14;6.55;;;4.38;;
22468;SDS011;11401;50.792;4.352;2023-11-18T02:56:42;8.35;;;4.30;;
22468;SDS011;11401;50.792;4.352;2023-11-18T02:59:10;6.07;;;3.97;;
22468;SDS011;11401;50.792;4.352;2023-11-18T03:01:37;7.20;;;3.58;;
22468;SDS011;11401;50.792;4.352;2023-11-18T03:04:07;5.95;;;3.70;;
22468;SDS011;11401;50.792;4.352;2023-11-18T03:06:35;5.80;;;3.53;;
22468;SDS011;11401;50.792;4.352;2023-11-18T03:09:02;8.00;;;4.28;;
22468;SDS011;11401;50.792;4.352;2023-11-18T03:11:33;4.65;;;3.63;;
22468;SDS011;11401;50.792;4.352;2023-11-18T03:14:00;7.00;;;4.05;;
22468;SDS011;11401;50.792;4.352;2023-11-18T03:16:28;7.82;;;3.88;;
22468;SDS011;11401;50.792;4.352;2023-11-18T03:18:55;5.65;;;3.50;;
22468;SDS011;11401;50.792;4.352;2023-11-18T03:21:22;6.57;;;4.15;;
22468;SDS011;11401;50.792;4.352;2023-11-18T03:23:49;6.25;;;3.10;;
22468;SDS011;11401;50.792;4.352;2023-11-18T03:26:16;7.57;;;3.40;;
22468;SDS011;11401;50.792;4.352;2023-11-18T03:28:43;6.55;;;3.67;;
22468;SDS011;11401;50.792;4.352;2023-11-18T03:31:10;5.13;;;3.50;;
22468;SDS011;11401;50.792;4.352;2023-11-18T03:33:38;4.55;;;3.25;;
22468;SDS011;11401;50.792;4.352;2023-11-18T03:36:06;7.35;;;3.70;;
22468;SDS011;11401;50.792;4.352;2023-11-18T03:38:35;7.30;;;3.20;;
22468;SDS011;11401;50.792;4.352;2023-11-18T03:41:01;8.43;;;3.70;;
22468;SDS011;11401;50.792;4.352;2023-11-18T03:43:29;6.00;;;3.00;;
22468;SDS011;11401;50.792;4.352;2023-11-18T03:45:56;6.72;;;2.92;;
22468;SDS011;11401;50.792;4.352;2023-11-18T03:48:23;6.35;;;3.55;;
22468;SDS011;11401;50.792;4.352;2023-11-18T03:50:51;6.90;;;2.88;;
22468;SDS011;11401;50.792;4.352;2023-11-18T03:53:20;6.68;;;2.90;;
22468;SDS011;11401;50.792;4.352;2023-11-18T03:55:47;7.75;;;3.30;;
22468;SDS011;11401;50.792;4.352;2023-11-18T03:58:14;6.70;;;3.83;;
22468;SDS011;11401;50.792;4.352;2023-11-18T04:00:41;6.00;;;3.38;;
22468;SDS011;11401;50.792;4.352;2023-11-18T04:03:08;9.15;;;3.28;;
22468;SDS011;11401;50.792;4.352;2023-11-18T04:05:36;6.00;;;2.95;;
22468;SDS011;11401;50.792;4.352;2023-11-18T04:08:05;3.83;;;2.63;;
22468;SDS011;11401;50.792;4.352;2023-11-18T04:10:33;6.88;;;3.38;;
22468;SDS011;11401;50.792;4.352;2023-11-18T04:13:00;4.75;;;3.38;;
22468;SDS011;11401;50.792;4.352;2023-11-18T04:15:27;5.97;;;3.38;;
22468;SDS011;11401;50.792;4.352;2023-11-18T04:17:54;5.18;;;2.80;;
22468;SDS011;11401;50.792;4.352;2023-11-18T04:20:21;3.25;;;2.67;;
22468;SDS011;11401;50.792;4.352;2023-11-18T04:22:49;6.45;;;2.97;;
22468;SDS011;11401;50.792;4.352;2023-11-18T04:25:16;3.08;;;2.78;;
22468;SDS011;11401;50.792;4.352;2023-11-18T04:27:43;2.60;;;2.33;;
22468;SDS011;11401;50.792;4.352;2023-11-18T04:30:12;5.20;;;2.80;;
22468;SDS011;11401;50.792;4.352;2023-11-18T04:32:40;4.20;;;3.05;;
22468;SDS011;11401;50.792;4.352;2023-11-18T04:35:09;4.18;;;2.70;;
22468;SDS011;11401;50.792;4.352;2023-11-18T04:37:38;3.65;;;2.70;;
22468;SDS011;11401;50.792;4.352;2023-11-18T04:40:10;5.55;;;2.65;;
22468;SDS011;11401;50.792;4.352;2023-11-18T04:42:39;3.85;;;2.67;;
22468;SDS011;11401;50.792;4.352;2023-11-18T04:45:07;3.60;;;2.53;;
22468;SDS011;11401;50.792;4.352;2023-11-18T04:47:37;6.28;;;2.80;;
22468;SDS011;11401;50.792;4.352;2023-11-18T04:50:05;4.60;;;2.53;;
22468;SDS011;11401;50.792;4.352;2023-11-18T04:52:32;6.63;;;2.45;;
22468;SDS011;11401;50.792;4.352;2023-11-18T04:55:01;4.45;;;2.67;;
22468;SDS011;11401;50.792;4.352;2023-11-18T04:57:29;3.67;;;2.38;;
22468;SDS011;11401;50.792;4.352;2023-11-18T04:59:56;4.65;;;2.35;;
22468;SDS011;11401;50.792;4.352;2023-11-18T05:02:23;5.10;;;2.72;;
22468;SDS011;11401;50.792;4.352;2023-11-18T05:04:51;5.53;;;2.38;;
22468;SDS011;11401;50.792;4.352;2023-11-18T05:07:18;4.90;;;2.50;;
22468;SDS011;11401;50.792;4.352;2023-11-18T05:09:45;5.05;;;2.90;;
22468;SDS011;11401;50.792;4.352;2023-11-18T05:12:12;4.28;;;2.70;;
22468;SDS011;11401;50.792;4.352;2023-11-18T05:14:39;2.42;;;2.22;;
22468;SDS011;11401;50.792;4.352;2023-11-18T05:17:06;7.30;;;2.63;;
22468;SDS011;11401;50.792;4.352;2023-11-18T05:19:33;6.50;;;2.47;;
22468;SDS011;11401;50.792;4.352;2023-11-18T05:22:00;6.35;;;2.05;;
22468;SDS011;11401;50.792;4.352;2023-11-18T05:24:27;6.22;;;2.70;;
22468;SDS011;11401;50.792;4.352;2023-11-18T05:26:54;6.00;;;2.17;;
22468;SDS011;11401;50.792;4.352;2023-11-18T05:29:22;5.82;;;2.50;;
22468;SDS011;11401;50.792;4.352;2023-11-18T05:31:50;3.60;;;2.20;;
22468;SDS011;11401;50.792;4.352;2023-11-18T05:34:17;7.85;;;2.78;;
22468;SDS011;11401;50.792;4.352;2023-11-18T05:36:47;5.55;;;2.40;;
22468;SDS011;11401;50.792;4.352;2023-11-18T05:39:17;6.75;;;2.42;;
22468;SDS011;11401;50.792;4.352;2023-11-18T05:41:46;6.38;;;2.97;;
22468;SDS011;11401;50.792;4.352;2023-11-18T05:44:16;4.50;;;2.47;;
22468;SDS011;11401;50.792;4.352;2023-11-18T05:46:46;2.65;;;2.28;;
22468;SDS011;11401;50.792;4.352;2023-11-18T05:49:13;7.50;;;2.75;;
22468;SDS011;11401;50.792;4.352;2023-11-18T05:51:40;2.75;;;1.90;;
22468;SDS011;11401;50.792;4.352;2023-11-18T05:54:07;4.45;;;2.20;;
22468;SDS011;11401;50.792;4.352;2023-11-18T05:56:34;6.43;;;2.53;;
22468;SDS011;11401;50.792;4.352;2023-11-18T05:59:01;7.80;;;2.45;;
22468;SDS011;11401;50.792;4.352;2023-11-18T06:01:32;3.28;;;2.20;;
22468;SDS011;11401;50.792;4.352;2023-11-18T06:03:59;5.55;;;2.30;;
22468;SDS011;11401;50.792;4.352;2023-11-18T06:06:27;2.90;;;2.50;;
22468;SDS011;11401;50.792;4.352;2023-11-18T06:08:54;6.00;;;2.83;;
22468;SDS011;11401;50.792;4.352;2023-11-18T06:11:25;5.10;;;2.00;;
22468;SDS011;11401;50.792;4.352;2023-11-18T06:13:53;4.40;;;2.53;;
22468;SDS011;11401;50.792;4.352;2023-11-18T06:16:24;6.20;;;2.05;;
22468;SDS011;11401;50.792;4.352;2023-11-18T06:18:53;7.40;;;2.30;;
22468;SDS011;11401;50.792;4.352;2023-11-18T06:21:22;4.53;;;2.55;;
22468;SDS011;11401;50.792;4.352;2023-11-18T06:23:58;6.30;;;2.40;;
22468;SDS011;11401;50.792;4.352;2023-11-18T06:26:26;2.88;;;2.10;;
22468;SDS011;11401;50.792;4.352;2023-11-18T06:28:54;5.55;;;2.47;;
22468;SDS011;11401;50.792;4.352;2023-11-18T06:31:22;2.75;;;2.15;;
22468;SDS011;11401;50.792;4.352;2023-11-18T06:33:50;4.43;;;2.50;;
22468;SDS011;11401;50.792;4.352;2023-11-18T06:36:19;5.47;;;2.20;;
22468;SDS011;11401;50.792;4.352;2023-11-18T06:38:50;8.80;;;2.83;;
22468;SDS011;11401;50.792;4.352;2023-11-18T06:41:19;4.15;;;2.33;;
22468;SDS011;11401;50.792;4.352;2023-11-18T06:43:50;4.43;;;2.33;;
22468;SDS011;11401;50.792;4.352;2023-11-18T06:46:32;8.95;;;2.15;;
22468;SDS011;11401;50.792;4.352;2023-11-18T06:49:03;6.10;;;2.35;;
22468;SDS011;11401;50.792;4.352;2023-11-18T06:51:31;4.20;;;2.30;;
22468;SDS011;11401;50.792;4.352;2023-11-18T06:54:01;6.15;;;2.40;;
22468;SDS011;11401;50.792;4.352;2023-11-18T06:56:36;4.55;;;1.98;;
22468;SDS011;11401;50.792;4.352;2023-11-18T06:59:05;2.83;;;2.03;;
22468;SDS011;11401;50.792;4.352;2023-11-18T07:01:36;3.25;;;2.00;;
22468;SDS011;11401;50.792;4.352;2023-11-18T07:04:04;7.72;;;2.03;;
22468;SDS011;11401;50.792;4.352;2023-11-18T07:06:35;4.18;;;1.83;;
22468;SDS011;11401;50.792;4.352;2023-11-18T07:09:06;6.32;;;1.80;;
22468;SDS011;11401;50.792;4.352;2023-11-18T07:11:45;3.92;;;1.90;;
22468;SDS011;11401;50.792;4.352;2023-11-18T07:14:14;4.35;;;2.30;;
22468;SDS011;11401;50.792;4.352;2023-11-18T07:16:41;6.72;;;2.80;;
22468;SDS011;11401;50.792;4.352;2023-11-18T07:19:09;2.78;;;1.77;;
22468;SDS011;11401;50.792;4.352;2023-11-18T07:21:43;7.13;;;2.55;;
22468;SDS011;11401;50.792;4.352;2023-11-18T07:24:10;5.43;;;2.00;;
22468;SDS011;11401;50.792;4.352;2023-11-18T07:26:37;3.75;;;2.22;;
22468;SDS011;11401;50.792;4.352;2023-11-18T07:29:04;5.30;;;1.95;;
22468;SDS011;11401;50.792;4.352;2023-11-18T07:31:34;6.65;;;2.35;;
22468;SDS011;11401;50.792;4.352;2023-11-18T07:34:04;4.47;;;2.25;;
22468;SDS011;11401;50.792;4.352;2023-11-18T07:36:34;5.70;;;2.50;;
22468;SDS011;11401;50.792;4.352;2023-11-18T07:39:01;2.83;;;2.03;;
22468;SDS011;11401;50.792;4.352;2023-11-18T07:41:32;3.83;;;2.60;;
22468;SDS011;11401;50.792;4.352;2023-11-18T07:43:59;6.15;;;2.53;;
22468;SDS011;11401;50.792;4.352;2023-11-18T07:46:28;5.40;;;2.42;;
22468;SDS011;11401;50.792;4.352;2023-11-18T07:48:58;7.43;;;3.00;;
22468;SDS011;11401;50.792;4.352;2023-11-18T07:51:27;10.18;;;2.83;;
22468;SDS011;11401;50.792;4.352;2023-11-18T07:53:55;4.07;;;2.35;;
22468;SDS011;11401;50.792;4.352;2023-11-18T07:56:23;3.22;;;2.25;;
22468;SDS011;11401;50.792;4.352;2023-11-18T07:58:50;5.65;;;2.53;;
22468;SDS011;11401;50.792;4.352;2023-11-18T08:01:19;4.43;;;2.22;;
22468;SDS011;11401;50.792;4.352;2023-11-18T08:03:48;6.28;;;2.90;;
22468;SDS011;11401;50.792;4.352;2023-11-18T08:06:17;5.57;;;2.70;;
22468;SDS011;11401;50.792;4.352;2023-11-18T08:08:44;6.80;;;2.80;;
22468;SDS011;11401;50.792;4.352;2023-11-18T08:11:14;3.90;;;2.78;;
22468;SDS011;11401;50.792;4.352;2023-11-18T08:13:42;4.40;;;3.13;;
22468;SDS011;11401;50.792;4.352;2023-11-18T08:16:10;6.25;;;2.92;;
22468;SDS011;11401;50.792;4.352;2023-11-18T08:18:39;4.93;;;3.42;;
22468;SDS011;11401;50.792;4.352;2023-11-18T08:21:06;5.32;;;3.38;;
22468;SDS011;11401;50.792;4.352;2023-11-18T08:23:33;7.25;;;3.53;;
22468;SDS011;11401;50.792;4.352;2023-11-18T08:26:02;5.80;;;3.05;;
22468;SDS011;11401;50.792;4.352;2023-11-18T08:28:30;4.15;;;3.50;;
22468;SDS011;11401;50.792;4.352;2023-11-18T08:30:57;8.77;;;3.42;;
22468;SDS011;11401;50.792;4.352;2023-11-18T08:33:24;6.80;;;3.45;;
22468;SDS011;11401;50.792;4.352;2023-11-18T08:35:52;4.47;;;3.90;;
22468;SDS011;11401;50.792;4.352;2023-11-18T08:38:19;7.20;;;3.30;;
22468;SDS011;11401;50.792;4.352;2023-11-18T08:40:46;6.47;;;3.60;;
22468;SDS011;11401;50.792;4.352;2023-11-18T08:43:15;6.55;;;3.47;;
22468;SDS011;11401;50.792;4.352;2023-11-18T08:45:43;4.05;;;3.03;;
22468;SDS011;11401;50.792;4.352;2023-11-18T08:48:11;9.00;;;3.58;;
22468;SDS011;11401;50.792;4.352;2023-11-18T08:50:40;7.85;;;3.38;;
22468;SDS011;11401;50.792;4.352;2023-11-18T08:53:07;5.88;;;3.47;;
22468;SDS011;11401;50.792;4.352;2023-11-18T08:55:37;7.80;;;3.40;;
22468;SDS011;11401;50.792;4.352;2023-11-18T08:58:24;7.50;;;3.60;;
22468;SDS011;11401;50.792;4.352;2023-11-18T09:00:56;7.30;;;3.38;;
22468;SDS011;11401;50.792;4.352;2023-11-18T09:03:41;6.72;;;3.72;;
22468;SDS011;11401;50.792;4.352;2023-11-18T09:06:19;9.40;;;3.45;;
22468;SDS011;11401;50.792;4.352;2023-11-18T09:08:54;6.03;;;3.65;;
22468;SDS011;11401;50.792;4.352;2023-11-18T09:11:24;5.80;;;4.03;;
22468;SDS011;11401;50.792;4.352;2023-11-18T09:13:59;6.82;;;3.83;;
22468;SDS011;11401;50.792;4.352;2023-11-18T09:16:28;8.15;;;3.55;;
22468;SDS011;11401;50.792;4.352;2023-11-18T09:18:59;6.30;;;3.40;;
22468;SDS011;11401;50.792;4.352;2023-11-18T09:21:29;5.93;;;3.33;;
22468;SDS011;11401;50.792;4.352;2023-11-18T09:24:02;8.45;;;3.40;;
22468;SDS011;11401;50.792;4.352;2023-11-18T09:26:31;5.30;;;3.30;;
22468;SDS011;11401;50.792;4.352;2023-11-18T09:28:59;4.63;;;2.85;;
22468;SDS011;11401;50.792;4.352;2023-11-18T09:31:28;7.72;;;3.60;;
22468;SDS011;11401;50.792;4.352;2023-11-18T09:33:55;6.82;;;3.70;;
22468;SDS011;11401;50.792;4.352;2023-11-18T09:36:24;6.78;;;3.63;;
22468;SDS011;11401;50.792;4.352;2023-11-18T09:38:56;5.57;;;3.20;;
22468;SDS011;11401;50.792;4.352;2023-11-18T09:41:27;4.70;;;3.25;;
22468;SDS011;11401;50.792;4.352;2023-11-18T09:43:55;6.28;;;3.40;;
22468;SDS011;11401;50.792;4.352;2023-11-18T09:46:24;7.22;;;3.22;;
22468;SDS011;11401;50.792;4.352;2023-11-18T09:49:12;6.10;;;3.25;;
22468;SDS011;11401;50.792;4.352;2023-11-18T09:51:44;3.22;;;2.92;;
22468;SDS011;11401;50.792;4.352;2023-11-18T10:00:02;8.55;;;3.10;;
22468;SDS011;11401;50.792;4.352;2023-11-18T10:02:49;4.53;;;3.35;;
22468;SDS011;11401;50.792;4.352;2023-11-18T10:05:21;4.85;;;3.22;;
22468;SDS011;11401;50.792;4.352;2023-11-18T10:07:49;5.03;;;2.92;;
22468;SDS011;11401;50.792;4.352;2023-11-18T10:10:17;5.40;;;2.53;;
22468;SDS011;11401;50.792;4.352;2023-11-18T10:12:49;5.05;;;3.00;;
22468;SDS011;11401;50.792;4.352;2023-11-18T10:15:26;5.00;;;3.25;;
22468;SDS011;11401;50.792;4.352;2023-11-18T10:17:54;2.72;;;2.47;;
22468;SDS011;11401;50.792;4.352;2023-11-18T10:23:09;4.65;;;2.63;;
22468;SDS011;11401;50.792;4.352;2023-11-18T10:30:57;16.17;;;3.65;;
22468;SDS011;11401;50.792;4.352;2023-11-18T10:33:25;12.40;;;4.60;;
22468;SDS011;11401;50.792;4.352;2023-11-18T10:36:00;21.35;;;4.50;;
22468;SDS011;11401;50.792;4.352;2023-11-18T10:38:32;14.77;;;3.00;;
22468;SDS011;11401;50.792;4.352;2023-11-18T10:41:05;11.00;;;2.83;;
22468;SDS011;11401;50.792;4.352;2023-11-18T10:43:32;7.38;;;2.45;;
22468;SDS011;11401;50.792;4.352;2023-11-18T10:46:09;6.13;;;2.75;;
22468;SDS011;11401;50.792;4.352;2023-11-18T10:48:44;5.25;;;2.45;;
22468;SDS011;11401;50.792;4.352;2023-11-18T10:51:14;8.38;;;2.22;;
22468;SDS011;11401;50.792;4.352;2023-11-18T10:53:43;5.93;;;2.30;;
22468;SDS011;11401;50.792;4.352;2023-11-18T10:56:19;4.03;;;2.38;;
22468;SDS011;11401;50.792;4.352;2023-11-18T10:59:04;3.92;;;2.28;;
22468;SDS011;11401;50.792;4.352;2023-11-18T11:01:36;5.30;;;2.20;;
22468;SDS011;11401;50.792;4.352;2023-11-18T11:04:09;7.70;;;2.97;;
22468;SDS011;11401;50.792;4.352;2023-11-18T11:06:42;3.13;;;2.22;;
22468;SDS011;11401;50.792;4.352;2023-11-18T11:09:12;5.40;;;1.75;;
22468;SDS011;11401;50.792;4.352;2023-11-18T11:11:50;8.25;;;2.75;;
22468;SDS011;11401;50.792;4.352;2023-11-18T11:14:32;2.50;;;1.70;;
22468;SDS011;11401;50.792;4.352;2023-11-18T11:17:09;2.75;;;1.80;;
22468;SDS011;11401;50.792;4.352;2023-11-18T11:19:48;4.35;;;2.15;;
22468;SDS011;11401;50.792;4.352;2023-11-18T11:22:24;2.95;;;1.73;;
22468;SDS011;11401;50.792;4.352;2023-11-18T11:25:02;5.10;;;2.08;;
22468;SDS011;11401;50.792;4.352;2023-11-18T11:28:09;4.18;;;1.80;;
22468;SDS011;11401;50.792;4.352;2023-11-18T11:30:46;3.40;;;1.65;;
22468;SDS011;11401;50.792;4.352;2023-11-18T11:36:12;3.70;;;2.05;;
22468;SDS011;11401;50.792;4.352;2023-11-18T11:38:43;1.52;;;1.30;;
22468;SDS011;11401;50.792;4.352;2023-11-18T11:41:13;1.70;;;1.60;;
22468;SDS011;11401;50.792;4.352;2023-11-18T11:43:49;1.88;;;1.50;;
22468;SDS011;11401;50.792;4.352;2023-11-18T11:46:17;1.50;;;1.30;;
22468;SDS011;11401;50.792;4.352;2023-11-18T11:48:50;3.03;;;1.52;;
22468;SDS011;11401;50.792;4.352;2023-11-18T11:51:26;2.40;;;1.45;;
22468;SDS011;11401;50.792;4.352;2023-11-18T11:56:41;2.50;;;1.70;;
22468;SDS011;11401;50.792;4.352;2023-11-18T11:59:09;1.90;;;1.50;;
22468;SDS011;11401;50.792;4.352;2023-11-18T12:01:40;1.60;;;1.42;;
22468;SDS011;11401;50.792;4.352;2023-11-18T12:04:11;3.08;;;1.92;;
22468;SDS011;11401;50.792;4.352;2023-11-18T12:06:48;2.40;;;1.58;;
22468;SDS011;11401;50.792;4.352;2023-11-18T12:09:35;1.75;;;1.60;;
22468;SDS011;11401;50.792;4.352;2023-11-18T12:12:05;1.38;;;1.27;;
22468;SDS011;11401;50.792;4.352;2023-11-18T12:23:23;2.15;;;1.52;;
22468;SDS011;11401;50.792;4.352;2023-11-18T12:25:52;1.30;;;1.20;;
22468;SDS011;11401;50.792;4.352;2023-11-18T12:28:24;1.25;;;1.15;;
22468;SDS011;11401;50.792;4.352;2023-11-18T12:30:53;1.30;;;1.20;;
22468;SDS011;11401;50.792;4.352;2023-11-18T12:41:40;1.20;;;1.20;;
22468;SDS011;11401;50.792;4.352;2023-11-18T12:47:01;1.33;;;1.20;;
22468;SDS011;11401;50.792;4.352;2023-11-18T12:49:49;2.25;;;1.20;;
22468;SDS011;11401;50.792;4.352;2023-11-18T12:52:21;1.67;;;1.13;;
22468;SDS011;11401;50.792;4.352;2023-11-18T12:54:50;1.13;;;1.02;;
22468;SDS011;11401;50.792;4.352;2023-11-18T12:57:21;1.40;;;1.30;;
22468;SDS011;11401;50.792;4.352;2023-11-18T12:59:52;1.40;;;1.30;;
22468;SDS011;11401;50.792;4.352;2023-11-18T13:02:19;1.40;;;1.30;;
22468;SDS011;11401;50.792;4.352;2023-11-18T13:04:47;1.30;;;1.17;;
22468;SDS011;11401;50.792;4.352;2023-11-18T13:07:16;1.67;;;1.58;;
22468;SDS011;11401;50.792;4.352;2023-11-18T13:09:45;2.15;;;1.30;;
22468;SDS011;11401;50.792;4.352;2023-11-18T13:12:13;2.38;;;1.40;;
22468;SDS011;11401;50.792;4.352;2023-11-18T13:14:42;1.48;;;1.38;;
22468;SDS011;11401;50.792;4.352;2023-11-18T13:17:11;1.67;;;1.08;;
22468;SDS011;11401;50.792;4.352;2023-11-18T13:19:39;1.98;;;1.20;;
22468;SDS011;11401;50.792;4.352;2023-11-18T13:22:10;1.10;;;1.08;;
22468;SDS011;11401;50.792;4.352;2023-11-18T13:24:39;1.63;;;1.40;;
22468;SDS011;11401;50.792;4.352;2023-11-18T13:27:08;1.27;;;1.10;;
22468;SDS011;11401;50.792;4.352;2023-11-18T13:29:36;1.27;;;1.17;;
22468;SDS011;11401;50.792;4.352;2023-11-18T13:32:08;1.38;;;1.27;;
22468;SDS011;11401;50.792;4.352;2023-11-18T13:34:37;1.20;;;1.10;;
22468;SDS011;11401;50.792;4.352;2023-11-18T13:37:08;1.27;;;1.17;;
22468;SDS011;11401;50.792;4.352;2023-11-18T13:39:39;1.00;;;1.00;;
22468;SDS011;11401;50.792;4.352;2023-11-18T13:42:18;1.52;;;1.10;;
22468;SDS011;11401;50.792;4.352;2023-11-18T13:44:47;1.05;;;1.05;;
22468;SDS011;11401;50.792;4.352;2023-11-18T13:47:17;1.05;;;1.00;;
22468;SDS011;11401;50.792;4.352;2023-11-18T13:49:45;1.23;;;1.13;;
22468;SDS011;11401;50.792;4.352;2023-11-18T13:52:17;1.17;;;1.08;;
22468;SDS011;11401;50.792;4.352;2023-11-18T13:54:46;1.00;;;1.00;;
22468;SDS011;11401;50.792;4.352;2023-11-18T13:57:14;0.90;;;0.90;;
22468;SDS011;11401;50.792;4.352;2023-11-18T13:59:41;1.20;;;1.20;;
22468;SDS011;11401;50.792;4.352;2023-11-18T14:02:11;2.45;;;1.42;;
22468;SDS011;11401;50.792;4.352;2023-11-18T14:04:39;1.27;;;1.17;;
22468;SDS011;11401;50.792;4.352;2023-11-18T14:07:10;1.40;;;1.30;;
22468;SDS011;11401;50.792;4.352;2023-11-18T14:09:44;0.98;;;0.98;;
22468;SDS011;11401;50.792;4.352;2023-11-18T14:12:12;1.10;;;1.00;;
22468;SDS011;11401;50.792;4.352;2023-11-18T14:14:40;1.10;;;1.08;;
22468;SDS011;11401;50.792;4.352;2023-11-18T14:17:08;1.23;;;1.15;;
22468;SDS011;11401;50.792;4.352;2023-11-18T14:19:37;1.33;;;1.20;;
22468;SDS011;11401;50.792;4.352;2023-11-18T14:22:04;1.00;;;1.00;;
22468;SDS011;11401;50.792;4.352;2023-11-18T14:24:33;0.98;;;0.98;;
22468;SDS011;11401;50.792;4.352;2023-11-18T14:27:00;1.08;;;1.08;;
22468;SDS011;11401;50.792;4.352;2023-11-18T14:29:28;1.17;;;1.10;;
22468;SDS011;11401;50.792;4.352;2023-11-18T14:31:55;1.20;;;1.20;;
22468;SDS011;11401;50.792;4.352;2023-11-18T14:34:23;1.08;;;1.08;;
22468;SDS011;11401;50.792;4.352;2023-11-18T14:36:51;1.20;;;1.13;;
22468;SDS011;11401;50.792;4.352;2023-11-18T14:39:18;1.00;;;1.00;;
22468;SDS011;11401;50.792;4.352;2023-11-18T14:41:49;0.90;;;0.90;;
22468;SDS011;11401;50.792;4.352;2023-11-18T14:44:17;1.00;;;1.00;;
22468;SDS011;11401;50.792;4.352;2023-11-18T14:46:44;0.95;;;0.95;;
22468;SDS011;11401;50.792;4.352;2023-11-18T14:49:12;1.13;;;1.13;;
22468;SDS011;11401;50.792;4.352;2023-11-18T14:51:39;0.80;;;0.80;;
22468;SDS011;11401;50.792;4.352;2023-11-18T14:54:06;1.10;;;1.10;;
22468;SDS011;11401;50.792;4.352;2023-11-18T14:56:35;1.00;;;1.00;;
22468;SDS011;11401;50.792;4.352;2023-11-18T14:59:03;1.05;;;1.05;;
22468;SDS011;11401;50.792;4.352;2023-11-18T15:01:32;1.00;;;0.88;;
22468;SDS011;11401;50.792;4.352;2023-11-18T15:03:59;0.90;;;0.90;;
22468;SDS011;11401;50.792;4.352;2023-11-18T15:06:29;1.10;;;1.10;;
22468;SDS011;11401;50.792;4.352;2023-11-18T15:08:57;1.10;;;1.10;;
22468;SDS011;11401;50.792;4.352;2023-11-18T15:11:24;0.90;;;0.90;;
22468;SDS011;11401;50.792;4.352;2023-11-18T15:13:52;1.13;;;1.02;;
22468;SDS011;11401;50.792;4.352;2023-11-18T15:16:20;0.80;;;0.80;;
22468;SDS011;11401;50.792;4.352;2023-11-18T15:18:48;1.00;;;1.00;;
22468;SDS011;11401;50.792;4.352;2023-11-18T15:21:19;0.95;;;0.93;;
22468;SDS011;11401;50.792;4.352;2023-11-18T15:23:46;0.82;;;0.82;;
22468;SDS011;11401;50.792;4.352;2023-11-18T15:26:15;1.00;;;1.00;;
22468;SDS011;11401;50.792;4.352;2023-11-18T15:28:42;0.90;;;0.90;;
22468;SDS011;11401;50.792;4.352;2023-11-18T15:31:10;1.45;;;1.35;;
22468;SDS011;11401;50.792;4.352;2023-11-18T15:33:39;1.17;;;1.08;;
22468;SDS011;11401;50.792;4.352;2023-11-18T15:36:06;0.80;;;0.80;;
22468;SDS011;11401;50.792;4.352;2023-11-18T15:38:34;0.90;;;0.90;;
22468;SDS011;11401;50.792;4.352;2023-11-18T15:41:02;1.10;;;1.05;;
22468;SDS011;11401;50.792;4.352;2023-11-18T15:43:29;1.30;;;0.85;;
22468;SDS011;11401;50.792;4.352;2023-11-18T15:45:56;1.00;;;1.00;;
22468;SDS011;11401;50.792;4.352;2023-11-18T15:48:25;1.00;;;1.00;;
22468;SDS011;11401;50.792;4.352;2023-11-18T15:50:56;1.13;;;1.02;;
22468;SDS011;11401;50.792;4.352;2023-11-18T15:53:26;0.98;;;0.98;;
22468;SDS011;11401;50.792;4.352;2023-11-18T15:55:54;0.95;;;0.95;;
22468;SDS011;11401;50.792;4.352;2023-11-18T15:58:21;0.70;;;0.70;;
22468;SDS011;11401;50.792;4.352;2023-11-18T16:00:52;0.95;;;0.90;;
22468;SDS011;11401;50.792;4.352;2023-11-18T16:03:20;0.85;;;0.85;;
22468;SDS011;11401;50.792;4.352;2023-11-18T16:05:47;1.27;;;1.17;;
22468;SDS011;11401;50.792;4.352;2023-11-18T16:08:15;1.15;;;1.10;;
22468;SDS011;11401;50.792;4.352;2023-11-18T16:10:51;1.08;;;1.08;;
22468;SDS011;11401;50.792;4.352;2023-11-18T16:13:21;0.90;;;0.90;;
22468;SDS011;11401;50.792;4.352;2023-11-18T16:15:48;0.80;;;0.80;;
22468;SDS011;11401;50.792;4.352;2023-11-18T16:18:15;1.02;;;1.02;;
22468;SDS011;11401;50.792;4.352;2023-11-18T16:20:42;1.17;;;1.10;;
22468;SDS011;11401;50.792;4.352;2023-11-18T16:23:09;1.90;;;1.33;;
22468;SDS011;11401;50.792;4.352;2023-11-18T16:25:36;0.90;;;0.90;;
22468;SDS011;11401;50.792;4.352;2023-11-18T16:28:04;0.88;;;0.88;;
22468;SDS011;11401;50.792;4.352;2023-11-18T16:30:34;3.78;;;1.30;;
22468;SDS011;11401;50.792;4.352;2023-11-18T16:33:02;1.08;;;1.05;;
22468;SDS011;11401;50.792;4.352;2023-11-18T16:35:30;1.02;;;1.00;;
22468;SDS011;11401;50.792;4.352;2023-11-18T16:37:58;2.13;;;1.35;;
22468;SDS011;11401;50.792;4.352;2023-11-18T16:40:29;1.20;;;1.20;;
22468;SDS011;11401;50.792;4.352;2023-11-18T16:42:56;2.10;;;1.38;;
22468;SDS011;11401;50.792;4.352;2023-11-18T16:45:26;1.10;;;1.10;;
22468;SDS011;11401;50.792;4.352;2023-11-18T16:47:53;2.08;;;1.60;;
22468;SDS011;11401;50.792;4.352;2023-11-18T16:50:22;1.38;;;1.27;;
22468;SDS011;11401;50.792;4.352;2023-11-18T16:52:55;1.98;;;1.70;;
22468;SDS011;11401;50.792;4.352;2023-11-18T16:55:23;1.75;;;1.65;;
22468;SDS011;11401;50.792;4.352;2023-11-18T16:57:50;1.10;;;1.08;;
22468;SDS011;11401;50.792;4.352;2023-11-18T17:00:20;2.17;;;1.30;;
22468;SDS011;11401;50.792;4.352;2023-11-18T17:02:52;2.78;;;1.30;;
22468;SDS011;11401;50.792;4.352;2023-11-18T17:05:25;1.75;;;1.20;;
22468;SDS011;11401;50.792;4.352;2023-11-18T17:07:56;1.40;;;1.30;;
22468;SDS011;11401;50.792;4.352;2023-11-18T17:10:23;1.40;;;1.40;;
22468;SDS011;11401;50.792;4.352;2023-11-18T17:12:50;1.70;;;1.60;;
22468;SDS011;11401;50.792;4.352;2023-11-18T17:15:18;3.63;;;2.03;;
22468;SDS011;11401;50.792;4.352;2023-11-18T17:17:46;1.55;;;1.45;;
22468;SDS011;11401;50.792;4.352;2023-11-18T17:20:16;1.58;;;1.48;;
22468;SDS011;11401;50.792;4.352;2023-11-18T17:22:43;1.80;;;1.70;;
22468;SDS011;11401;50.792;4.352;2023-11-18T17:25:11;1.70;;;1.60;;
22468;SDS011;11401;50.792;4.352;2023-11-18T17:27:42;1.60;;;1.50;;
22468;SDS011;11401;50.792;4.352;2023-11-18T17:30:11;1.65;;;1.55;;
22468;SDS011;11401;50.792;4.352;2023-11-18T17:32:39;1.85;;;1.38;;
22468;SDS011;11401;50.792;4.352;2023-11-18T17:35:08;2.58;;;2.33;;
22468;SDS011;11401;50.792;4.352;2023-11-18T17:37:36;2.78;;;2.58;;
22468;SDS011;11401;50.792;4.352;2023-11-18T17:40:03;1.92;;;1.83;;
22468;SDS011;11401;50.792;4.352;2023-11-18T17:42:31;1.38;;;1.30;;
22468;SDS011;11401;50.792;4.352;2023-11-18T17:44:59;1.70;;;1.60;;
22468;SDS011;11401;50.792;4.352;2023-11-18T17:47:31;2.13;;;1.88;;
22468;SDS011;11401;50.792;4.352;2023-11-18T17:50:01;1.88;;;1.77;;
22468;SDS011;11401;50.792;4.352;2023-11-18T17:52:31;2.00;;;1.83;;
22468;SDS011;11401;50.792;4.352;2023-11-18T17:54:58;2.85;;;1.70;;
22468;SDS011;11401;50.792;4.352;2023-11-18T17:57:25;1.48;;;1.38;;
22468;SDS011;11401;50.792;4.352;2023-11-18T17:59:52;1.90;;;1.80;;
22468;SDS011;11401;50.792;4.352;2023-11-18T18:02:20;2.55;;;2.22;;
22468;SDS011;11401;50.792;4.352;2023-11-18T18:04:48;2.47;;;2.28;;
22468;SDS011;11401;50.792;4.352;2023-11-18T18:07:15;2.25;;;1.83;;
22468;SDS011;11401;50.792;4.352;2023-11-18T18:09:42;1.92;;;1.80;;
22468;SDS011;11401;50.792;4.352;2023-11-18T18:12:12;2.10;;;1.98;;
22468;SDS011;11401;50.792;4.352;2023-11-18T18:14:39;2.30;;;2.20;;